createdAt,value
2018-12-03T00:01:21.919Z,0.70
2018-12-03T00:03:50.057Z,0.50
2018-12-03T00:06:18.195Z,0.60
2018-12-03T00:08:46.891Z,0.50
2018-12-03T00:11:14.975Z,0.60
2018-12-03T00:13:43.076Z,0.60
2018-12-03T00:16:11.511Z,0.50
2018-12-03T00:18:39.680Z,0.40
2018-12-03T00:21:07.899Z,0.60
2018-12-03T00:23:35.975Z,0.50
2018-12-03T00:26:04.100Z,0.60
2018-12-03T00:28:32.207Z,0.50
2018-12-03T00:31:00.297Z,0.50
2018-12-03T00:33:28.441Z,0.50
2018-12-03T00:35:57.083Z,0.57
2018-12-03T00:38:25.218Z,0.60
2018-12-03T00:40:53.300Z,0.60
2018-12-03T00:43:21.435Z,0.80
2018-12-03T00:45:49.532Z,0.70
2018-12-03T00:48:17.636Z,0.50
2018-12-03T00:50:45.747Z,0.50
2018-12-03T00:53:13.834Z,0.60
2018-12-03T00:55:41.928Z,0.60
2018-12-03T00:58:09.995Z,0.60
2018-12-03T01:00:38.086Z,0.80
2018-12-03T01:03:06.214Z,0.60
2018-12-03T01:05:34.326Z,0.50
2018-12-03T01:08:02.510Z,0.57
2018-12-03T01:10:30.622Z,0.50
2018-12-03T01:12:58.738Z,0.70
2018-12-03T01:15:26.878Z,0.53
2018-12-03T01:17:54.987Z,0.67
2018-12-03T01:20:23.205Z,0.57
2018-12-03T01:22:51.354Z,0.50
2018-12-03T01:25:19.518Z,0.60
2018-12-03T01:27:47.682Z,0.50
2018-12-03T01:30:15.896Z,0.60
2018-12-03T01:32:44.050Z,0.60
2018-12-03T01:35:12.556Z,0.63
2018-12-03T01:37:40.663Z,0.50
2018-12-03T01:40:10.557Z,0.93
2018-12-03T01:42:38.881Z,0.70
2018-12-03T01:45:10.648Z,0.90
2018-12-03T01:47:39.206Z,0.60
2018-12-03T01:50:09.164Z,0.63
2018-12-03T01:52:37.399Z,0.43
2018-12-03T01:55:06.195Z,0.50
2018-12-03T01:57:34.346Z,0.50
2018-12-03T02:00:02.866Z,0.63
2018-12-03T02:02:31.463Z,0.50
2018-12-03T02:04:59.620Z,0.60
2018-12-03T02:07:27.711Z,0.40
2018-12-03T02:09:55.782Z,0.50
2018-12-03T02:12:24.352Z,0.70
2018-12-03T02:14:52.635Z,0.60
2018-12-03T02:17:20.778Z,0.70
2018-12-03T02:19:48.882Z,0.50
2018-12-03T02:22:17.038Z,0.50
2018-12-03T02:24:45.231Z,0.53
2018-12-03T02:27:13.367Z,0.50
2018-12-03T02:29:41.478Z,0.50
2018-12-03T02:32:09.568Z,0.50
2018-12-03T02:34:37.648Z,0.50
2018-12-03T02:37:05.784Z,0.50
2018-12-03T02:39:33.911Z,0.47
2018-12-03T02:42:02.000Z,0.60
2018-12-03T02:44:30.215Z,0.70
2018-12-03T02:46:58.377Z,0.50
2018-12-03T02:49:26.537Z,0.50
2018-12-03T02:51:54.730Z,0.50
2018-12-03T02:54:23.071Z,0.60
2018-12-03T02:56:51.188Z,0.60
2018-12-03T02:59:19.272Z,0.50
2018-12-03T03:01:47.380Z,0.50
2018-12-03T03:04:16.499Z,0.70
2018-12-03T03:06:44.611Z,0.70
2018-12-03T03:09:12.693Z,0.50
2018-12-03T03:11:40.775Z,0.40
2018-12-03T03:14:08.880Z,0.60
2018-12-03T03:16:36.980Z,0.70
2018-12-03T03:19:05.175Z,0.90
2018-12-03T03:21:33.238Z,0.50
2018-12-03T03:24:01.447Z,0.40
2018-12-03T03:26:29.592Z,0.60
2018-12-03T03:28:57.719Z,0.53
2018-12-03T03:31:25.794Z,0.40
2018-12-03T03:33:54.124Z,0.50
2018-12-03T03:36:22.233Z,0.50
2018-12-03T03:38:50.579Z,0.40
2018-12-03T03:41:18.766Z,0.47
2018-12-03T03:43:46.840Z,0.60
2018-12-03T03:46:15.695Z,0.60
2018-12-03T03:48:43.783Z,0.50
2018-12-03T03:51:11.901Z,0.50
2018-12-03T03:53:39.979Z,0.50
2018-12-03T03:56:08.177Z,0.50
2018-12-03T03:58:36.278Z,0.50
2018-12-03T04:01:05.064Z,0.50
2018-12-03T04:03:33.237Z,0.50
2018-12-03T04:06:01.316Z,0.50
2018-12-03T04:08:29.409Z,0.50
2018-12-03T04:10:57.470Z,0.50
2018-12-03T04:13:25.544Z,0.60
2018-12-03T04:15:53.620Z,0.60
2018-12-03T04:18:22.524Z,0.57
2018-12-03T04:20:50.787Z,0.57
2018-12-03T04:23:19.571Z,0.60
2018-12-03T04:25:47.659Z,1.07
2018-12-03T04:28:15.731Z,0.70
2018-12-03T04:30:43.874Z,0.70
2018-12-03T04:33:13.721Z,0.50
2018-12-03T04:35:41.804Z,0.60
2018-12-03T04:38:09.889Z,0.70
2018-12-03T04:40:37.949Z,0.57
2018-12-03T04:43:06.032Z,0.50
2018-12-03T04:45:34.217Z,0.63
2018-12-03T04:48:02.299Z,0.60
2018-12-03T04:50:30.427Z,0.40
2018-12-03T04:52:58.495Z,0.60
2018-12-03T04:55:26.676Z,0.60
2018-12-03T04:57:54.731Z,0.50
2018-12-03T05:00:22.832Z,0.50
2018-12-03T05:02:51.521Z,0.60
2018-12-03T05:05:19.758Z,0.63
2018-12-03T05:07:47.889Z,0.70
2018-12-03T05:10:16.709Z,0.60
2018-12-03T05:12:45.463Z,0.50
2018-12-03T05:15:13.770Z,0.60
2018-12-03T05:17:42.262Z,0.50
2018-12-03T05:20:11.112Z,0.50
2018-12-03T05:22:40.227Z,0.50
2018-12-03T05:25:09.401Z,0.50
2018-12-03T05:27:37.511Z,0.63
2018-12-03T05:30:08.267Z,0.40
2018-12-03T05:32:36.379Z,0.60
2018-12-03T05:35:05.904Z,0.60
2018-12-03T05:37:34.067Z,0.50
2018-12-03T05:40:02.145Z,0.60
2018-12-03T05:42:30.368Z,0.70
2018-12-03T05:44:58.499Z,1.50
2018-12-03T05:47:26.678Z,0.60
2018-12-03T05:49:54.827Z,1.00
2018-12-03T05:52:22.899Z,0.80
2018-12-03T05:54:51.012Z,0.80
2018-12-03T05:57:19.060Z,0.53
2018-12-03T05:59:47.160Z,0.60
2018-12-03T06:02:15.307Z,0.60
2018-12-03T06:04:43.478Z,1.87
2018-12-03T06:07:11.535Z,1.23
2018-12-03T06:09:39.668Z,0.90
2018-12-03T06:12:07.733Z,0.60
2018-12-03T06:14:35.828Z,0.50
2018-12-03T06:17:03.976Z,0.50
2018-12-03T06:19:32.077Z,0.70
2018-12-03T06:22:00.219Z,0.60
2018-12-03T06:24:28.355Z,0.60
2018-12-03T06:26:56.453Z,0.60
2018-12-03T06:29:24.817Z,0.50
2018-12-03T06:31:52.886Z,0.60
2018-12-03T06:34:20.979Z,0.43
2018-12-03T06:36:49.259Z,0.47
2018-12-03T06:39:17.449Z,0.40
2018-12-03T06:41:45.517Z,0.47
2018-12-03T06:44:13.660Z,0.60
2018-12-03T06:46:41.791Z,0.40
2018-12-03T06:49:09.992Z,0.70
2018-12-03T06:51:38.311Z,0.60
2018-12-03T06:54:06.998Z,0.50
2018-12-03T06:56:35.264Z,0.53
2018-12-03T06:59:03.520Z,0.50
2018-12-03T07:01:31.719Z,0.60
2018-12-03T07:03:59.799Z,0.40
2018-12-03T07:06:27.990Z,0.50
2018-12-03T07:08:56.241Z,0.60
2018-12-03T07:11:24.322Z,0.80
2018-12-03T07:13:52.423Z,0.63
2018-12-03T07:16:20.557Z,0.90
2018-12-03T07:18:48.642Z,0.50
2018-12-03T07:21:16.743Z,0.60
2018-12-03T07:23:44.891Z,0.50
2018-12-03T07:26:12.955Z,0.70
2018-12-03T07:28:41.127Z,1.60
2018-12-03T07:31:09.311Z,1.03
2018-12-03T07:33:37.378Z,0.50
2018-12-03T07:36:05.451Z,0.50
2018-12-03T07:38:33.714Z,0.60
2018-12-03T07:41:01.635Z,0.50
2018-12-03T07:43:29.776Z,0.67
2018-12-03T07:45:57.870Z,0.50
2018-12-03T07:48:26.018Z,0.50
2018-12-03T07:50:54.195Z,0.53
2018-12-03T07:53:22.414Z,0.50
2018-12-03T07:55:50.623Z,0.60
2018-12-03T07:58:19.672Z,0.60
2018-12-03T08:00:49.979Z,0.50
2018-12-03T08:03:18.175Z,0.87
2018-12-03T08:05:47.407Z,1.50
2018-12-03T08:08:14.622Z,0.70
2018-12-03T08:10:43.729Z,0.73
2018-12-03T08:13:12.635Z,0.70
2018-12-03T08:16:20.027Z,0.77
2018-12-03T08:18:48.042Z,0.83
2018-12-03T08:21:16.163Z,0.73
2018-12-03T08:23:44.229Z,0.70
2018-12-03T08:26:12.403Z,0.60
2018-12-03T08:28:41.099Z,0.70
2018-12-03T08:31:09.777Z,2.73
2018-12-03T08:33:37.854Z,0.80
2018-12-03T08:36:05.899Z,0.50
2018-12-03T08:38:33.998Z,0.70
2018-12-03T08:41:03.755Z,0.60
2018-12-03T08:43:31.895Z,0.60
2018-12-03T08:45:59.919Z,1.73
2018-12-03T08:48:29.852Z,0.50
2018-12-03T08:50:57.942Z,0.60
2018-12-03T08:53:26.021Z,0.50
2018-12-03T08:55:54.091Z,0.80
2018-12-03T08:58:22.214Z,0.60
2018-12-03T09:00:50.335Z,0.80
2018-12-03T09:03:19.621Z,0.60
2018-12-03T09:05:47.818Z,0.50
2018-12-03T09:08:16.381Z,0.60
2018-12-03T09:10:44.478Z,0.63
2018-12-03T09:13:14.587Z,0.70
2018-12-03T09:15:42.681Z,0.67
2018-12-03T09:18:10.735Z,0.83
2018-12-03T09:20:38.811Z,0.60
2018-12-03T09:23:06.851Z,0.60
2018-12-03T09:25:35.679Z,0.60
2018-12-03T09:28:03.726Z,1.00
2018-12-03T09:30:32.738Z,0.60
2018-12-03T09:33:01.569Z,0.70
2018-12-03T09:35:29.615Z,0.70
2018-12-03T09:37:57.785Z,0.60
2018-12-03T09:40:25.819Z,0.60
2018-12-03T09:42:53.927Z,0.70
2018-12-03T09:45:22.115Z,0.50
2018-12-03T09:47:50.203Z,1.20
2018-12-03T09:50:18.233Z,0.73
2018-12-03T09:52:47.554Z,1.83
2018-12-03T09:55:15.755Z,0.60
2018-12-03T09:57:43.803Z,0.70
2018-12-03T10:00:14.759Z,1.00
2018-12-03T10:02:42.821Z,0.90
2018-12-03T10:05:11.298Z,0.70
2018-12-03T10:07:40.089Z,0.80
2018-12-03T10:10:09.784Z,0.60
2018-12-03T10:12:38.490Z,0.70
2018-12-03T10:15:06.822Z,0.80
2018-12-03T10:17:35.094Z,0.60
2018-12-03T10:20:03.424Z,0.80
2018-12-03T10:22:31.567Z,0.60
2018-12-03T10:25:01.313Z,0.77
2018-12-03T10:27:30.843Z,0.60
2018-12-03T10:29:58.887Z,0.87
2018-12-03T10:32:26.967Z,0.50
2018-12-03T10:34:55.703Z,0.57
2018-12-03T10:37:23.823Z,0.80
2018-12-03T10:39:52.765Z,0.50
2018-12-03T10:42:20.884Z,0.73
2018-12-03T10:44:48.962Z,0.50
2018-12-03T10:47:17.430Z,0.80
2018-12-03T10:49:45.460Z,0.50
2018-12-03T10:52:14.067Z,0.60
2018-12-03T10:54:42.182Z,0.77
2018-12-03T10:57:10.282Z,0.63
2018-12-03T10:59:38.529Z,0.40
2018-12-03T11:02:08.620Z,0.50
2018-12-03T11:04:43.580Z,0.60
2018-12-03T11:07:11.714Z,0.50
2018-12-03T11:09:39.830Z,0.50
2018-12-03T11:12:07.903Z,0.80
2018-12-03T11:14:36.098Z,0.60
2018-12-03T11:17:04.781Z,0.60
2018-12-03T11:19:32.887Z,0.40
2018-12-03T11:22:00.914Z,0.47
2018-12-03T11:24:29.085Z,0.63
2018-12-03T11:26:58.218Z,0.60
2018-12-03T11:29:26.278Z,1.53
2018-12-03T11:31:54.303Z,0.60
2018-12-03T11:34:22.346Z,0.63
2018-12-03T11:36:50.475Z,0.50
2018-12-03T11:39:18.550Z,0.70
2018-12-03T11:41:46.619Z,0.90
2018-12-03T11:44:14.791Z,0.63
2018-12-03T11:46:42.839Z,0.53
2018-12-03T11:49:11.053Z,0.50
2018-12-03T11:51:39.223Z,0.60
2018-12-03T11:54:07.332Z,0.50
2018-12-03T11:56:35.391Z,0.60
2018-12-03T11:59:03.541Z,0.60
2018-12-03T12:01:31.575Z,0.80
2018-12-03T12:03:59.748Z,0.50
2018-12-03T12:06:28.068Z,0.47
2018-12-03T12:08:56.109Z,0.60
2018-12-03T12:11:24.181Z,0.67
2018-12-03T12:13:52.504Z,0.57
2018-12-03T12:16:20.571Z,0.50
2018-12-03T12:18:48.630Z,0.50
2018-12-03T12:21:16.656Z,0.73
2018-12-03T12:23:44.711Z,0.60
2018-12-03T12:26:12.867Z,0.50
2018-12-03T12:28:41.104Z,0.67
2018-12-03T12:31:09.131Z,0.83
2018-12-03T12:33:37.182Z,0.77
2018-12-03T12:36:05.287Z,0.63
2018-12-03T12:38:33.342Z,0.50
2018-12-03T12:41:01.364Z,5.00
2018-12-03T12:43:29.474Z,2.00
2018-12-03T12:45:57.518Z,0.50
2018-12-03T12:48:25.557Z,0.60
2018-12-03T12:50:53.594Z,1.00
2018-12-03T12:53:21.622Z,0.50
2018-12-03T12:55:49.662Z,0.60
2018-12-03T12:58:17.692Z,0.50
2018-12-03T13:00:45.744Z,0.50
2018-12-03T13:03:13.797Z,0.70
2018-12-03T13:05:41.924Z,0.40
2018-12-03T13:08:10.416Z,0.70
2018-12-03T13:10:38.462Z,0.60
2018-12-03T13:13:06.574Z,0.80
2018-12-03T13:15:34.600Z,0.70
2018-12-03T13:18:02.668Z,0.53
2018-12-03T13:20:30.702Z,0.60
2018-12-03T13:22:58.766Z,0.60
2018-12-03T13:25:26.824Z,0.47
2018-12-03T13:27:54.856Z,0.40
2018-12-03T13:30:22.975Z,0.80
2018-12-03T13:32:51.015Z,0.60
2018-12-03T13:35:19.464Z,0.70
2018-12-03T13:37:47.584Z,0.60
2018-12-03T13:40:15.768Z,0.60
2018-12-03T13:42:43.794Z,0.50
2018-12-03T13:45:11.997Z,0.60
2018-12-03T13:47:40.089Z,0.60
2018-12-03T13:50:08.200Z,0.60
2018-12-03T13:52:36.227Z,0.60
2018-12-03T13:55:05.434Z,0.60
2018-12-03T13:57:33.476Z,0.67
2018-12-03T14:00:01.925Z,0.60
2018-12-03T14:02:29.988Z,0.70
2018-12-03T14:04:58.743Z,0.73
2018-12-03T14:07:26.785Z,0.70
2018-12-03T14:09:54.906Z,1.00
2018-12-03T14:12:22.942Z,1.17
2018-12-03T14:14:51.050Z,1.10
2018-12-03T14:17:19.331Z,0.70
2018-12-03T14:19:47.452Z,0.67
2018-12-03T14:22:16.286Z,0.60
2018-12-03T14:24:44.327Z,0.60
2018-12-03T14:27:12.428Z,0.70
2018-12-03T14:29:40.481Z,0.60
2018-12-03T14:32:08.901Z,0.53
2018-12-03T14:34:36.931Z,0.67
2018-12-03T14:37:05.050Z,0.60
2018-12-03T14:39:33.087Z,0.60
2018-12-03T14:42:01.352Z,0.67
2018-12-03T14:44:29.554Z,0.83
2018-12-03T14:46:57.626Z,0.93
2018-12-03T14:49:26.016Z,0.60
2018-12-03T14:51:54.049Z,0.50
2018-12-03T14:54:22.161Z,0.40
2018-12-03T14:56:50.207Z,0.63
2018-12-03T14:59:18.655Z,0.60
2018-12-03T15:01:46.705Z,0.70
2018-12-03T15:04:14.746Z,0.73
2018-12-03T15:06:43.332Z,1.03
2018-12-03T15:09:11.515Z,0.93
2018-12-03T15:11:39.592Z,0.70
2018-12-03T15:14:07.655Z,0.80
2018-12-03T15:16:35.715Z,0.70
2018-12-03T15:19:04.652Z,0.70
2018-12-03T15:21:33.074Z,0.67
2018-12-03T15:24:01.108Z,0.80
2018-12-03T15:26:29.262Z,0.90
2018-12-03T15:28:57.537Z,0.90
2018-12-03T15:31:25.578Z,0.83
2018-12-03T15:33:53.681Z,1.20
2018-12-03T15:36:22.268Z,0.60
2018-12-03T15:38:51.031Z,0.70
2018-12-03T15:41:19.604Z,0.60
2018-12-03T15:43:47.920Z,0.70
2018-12-03T15:46:16.222Z,0.83
2018-12-03T15:48:44.271Z,0.60
2018-12-03T15:51:12.539Z,0.60
2018-12-03T15:53:40.596Z,0.70
2018-12-03T15:56:08.665Z,0.70
2018-12-03T15:58:36.765Z,0.73
2018-12-03T16:01:05.079Z,0.70
2018-12-03T16:03:33.220Z,0.60
2018-12-03T16:06:01.287Z,0.63
2018-12-03T16:08:29.411Z,0.90
2018-12-03T16:10:57.442Z,0.90
2018-12-03T16:13:25.503Z,0.90
2018-12-03T16:15:53.551Z,0.80
2018-12-03T16:18:21.655Z,0.90
2018-12-03T16:20:49.720Z,1.30
2018-12-03T16:23:17.824Z,1.07
2018-12-03T16:25:45.896Z,1.47
2018-12-03T16:28:13.923Z,1.40
2018-12-03T16:30:41.981Z,1.33
2018-12-03T16:33:10.103Z,1.33
2018-12-03T16:35:38.144Z,1.13
2018-12-03T16:38:06.171Z,1.60
2018-12-03T16:40:34.235Z,1.60
2018-12-03T16:43:02.287Z,1.43
2018-12-03T16:45:30.340Z,1.60
2018-12-03T16:47:58.428Z,2.23
2018-12-03T16:50:26.447Z,3.30
2018-12-03T16:52:54.535Z,2.40
2018-12-03T16:55:22.807Z,3.23
2018-12-03T16:57:50.916Z,2.53
2018-12-03T17:00:19.043Z,2.43
2018-12-03T17:02:47.073Z,3.20
2018-12-03T17:05:15.174Z,5.10
2018-12-03T17:07:43.321Z,5.00
2018-12-03T17:10:11.346Z,2.20
2018-12-03T17:12:39.638Z,4.23
2018-12-03T17:15:07.744Z,3.90
2018-12-03T17:17:35.804Z,3.37
2018-12-03T17:20:05.112Z,3.93
2018-12-03T17:22:33.150Z,3.23
2018-12-03T17:25:01.294Z,3.30
2018-12-03T17:27:29.330Z,3.00
2018-12-03T17:29:58.038Z,2.60
2018-12-03T17:32:26.102Z,3.20
2018-12-03T17:34:54.163Z,2.90
2018-12-03T17:37:22.207Z,2.57
2018-12-03T17:39:50.288Z,2.10
2018-12-03T17:42:18.536Z,2.30
2018-12-03T17:44:46.596Z,2.70
2018-12-03T17:47:14.653Z,2.10
2018-12-03T17:49:42.688Z,2.70
2018-12-03T17:52:10.745Z,2.40
2018-12-03T17:54:38.813Z,2.37
2018-12-03T17:57:06.945Z,2.07
2018-12-03T17:59:34.965Z,2.30
2018-12-03T18:02:03.083Z,2.03
2018-12-03T18:04:31.165Z,1.83
2018-12-03T18:06:59.325Z,2.30
2018-12-03T18:09:28.706Z,1.80
2018-12-03T18:11:56.799Z,1.80
2018-12-03T18:14:24.835Z,1.60
2018-12-03T18:16:52.907Z,1.70
2018-12-03T18:19:21.651Z,1.60
2018-12-03T18:21:49.711Z,1.53
2018-12-03T18:24:17.778Z,1.50
2018-12-03T18:26:45.841Z,1.70
2018-12-03T18:29:14.409Z,1.87
2018-12-03T18:31:42.640Z,1.33
2018-12-03T18:34:10.696Z,1.23
2018-12-03T18:36:38.776Z,1.50
2018-12-03T18:39:07.237Z,1.20
2018-12-03T18:41:35.305Z,1.43
2018-12-03T18:44:03.373Z,1.23
2018-12-03T18:46:31.477Z,1.13
2018-12-03T18:48:59.630Z,1.00
2018-12-03T18:51:27.816Z,1.10
2018-12-03T18:53:56.399Z,1.13
2018-12-03T18:56:24.466Z,1.10
2018-12-03T18:58:52.540Z,1.43
2018-12-03T19:01:20.597Z,1.00
2018-12-03T19:03:48.868Z,0.60
2018-12-03T19:06:16.915Z,0.73
2018-12-03T19:08:45.063Z,0.87
2018-12-03T19:11:13.133Z,0.80
2018-12-03T19:13:41.163Z,0.63
2018-12-03T19:16:09.363Z,0.57
2018-12-03T19:18:37.423Z,0.70
2018-12-03T19:21:05.501Z,0.77
2018-12-03T19:23:33.928Z,0.53
2018-12-03T19:26:02.949Z,0.57
2018-12-03T19:28:32.031Z,0.40
2018-12-03T19:31:00.152Z,0.40
2018-12-03T19:33:28.211Z,0.60
2018-12-03T19:35:56.316Z,0.50
2018-12-03T19:38:24.371Z,0.50
2018-12-03T19:40:52.419Z,0.50
2018-12-03T19:43:21.003Z,0.50
2018-12-03T19:45:49.840Z,0.60
2018-12-03T19:48:18.000Z,0.60
2018-12-03T19:50:46.578Z,0.70
2018-12-03T19:53:14.655Z,0.90
2018-12-03T19:55:42.701Z,0.60
2018-12-03T19:58:11.214Z,0.80
2018-12-03T20:00:39.261Z,0.70
2018-12-03T20:03:07.298Z,0.80
2018-12-03T20:05:35.402Z,0.70
2018-12-03T20:08:03.448Z,1.00
2018-12-03T20:10:31.512Z,0.90
2018-12-03T20:12:59.644Z,1.77
2018-12-03T20:15:27.727Z,1.00
2018-12-03T20:17:56.237Z,1.13
2018-12-03T20:20:24.386Z,1.00
2018-12-03T20:22:52.563Z,0.80
2018-12-03T20:25:20.779Z,1.03
2018-12-03T20:27:48.903Z,0.70
2018-12-03T20:30:18.644Z,0.90
2018-12-03T20:32:46.779Z,0.70
2018-12-03T20:35:14.972Z,0.90
2018-12-03T20:37:43.771Z,0.87
2018-12-03T20:40:13.883Z,1.00
2018-12-03T20:42:41.949Z,0.93
2018-12-03T20:45:12.518Z,1.57
2018-12-03T20:47:40.727Z,1.20
2018-12-03T20:50:10.795Z,0.93
2018-12-03T20:52:39.267Z,1.20
2018-12-03T20:55:08.471Z,1.30
2018-12-03T20:57:36.638Z,1.30
2018-12-03T21:00:05.882Z,1.30
2018-12-03T21:02:34.034Z,1.30
2018-12-03T21:05:02.240Z,1.10
2018-12-03T21:07:30.284Z,1.37
2018-12-03T21:09:58.337Z,1.10
2018-12-03T21:12:26.368Z,1.30
2018-12-03T21:14:54.422Z,1.40
2018-12-03T21:17:22.483Z,1.20
2018-12-03T21:19:51.534Z,1.40
2018-12-03T21:22:19.575Z,1.43
2018-12-03T21:24:47.688Z,1.73
2018-12-03T21:27:16.292Z,1.20
2018-12-03T21:29:44.979Z,1.60
2018-12-03T21:32:13.019Z,1.80
2018-12-03T21:34:41.068Z,1.40
2018-12-03T21:37:09.529Z,1.40
2018-12-03T21:39:37.676Z,1.53
2018-12-03T21:42:05.716Z,1.40
2018-12-03T21:44:33.759Z,1.57
2018-12-03T21:47:01.819Z,2.33
2018-12-03T21:49:29.880Z,1.80
2018-12-03T21:51:57.912Z,1.47
2018-12-03T21:54:26.373Z,1.60
2018-12-03T21:56:54.425Z,1.80
2018-12-03T21:59:22.470Z,2.13
2018-12-03T22:01:50.641Z,1.53
2018-12-03T22:04:18.703Z,1.60
2018-12-03T22:06:46.756Z,1.57
2018-12-03T22:09:15.239Z,1.70
2018-12-03T22:11:43.307Z,1.30
2018-12-03T22:14:11.447Z,1.20
2018-12-03T22:16:39.500Z,1.40
2018-12-03T22:19:07.551Z,1.30
2018-12-03T22:21:35.616Z,1.33
2018-12-03T22:24:03.722Z,2.20
2018-12-03T22:26:31.780Z,1.60
2018-12-03T22:29:00.248Z,1.40
2018-12-03T22:31:28.839Z,1.50
2018-12-03T22:33:56.899Z,1.33
2018-12-03T22:36:25.023Z,1.27
2018-12-03T22:38:53.050Z,1.17
2018-12-03T22:41:21.423Z,1.20
2018-12-03T22:43:49.521Z,1.83
2018-12-03T22:46:18.097Z,7.30
2018-12-03T22:48:46.148Z,1.30
2018-12-03T22:51:14.843Z,2.00
2018-12-03T22:53:42.927Z,1.37
2018-12-03T22:56:10.951Z,1.20
2018-12-03T22:58:38.994Z,1.17
2018-12-03T23:01:07.168Z,1.30
2018-12-03T23:03:35.220Z,2.80
2018-12-03T23:06:03.269Z,1.20
2018-12-03T23:08:31.300Z,1.37
2018-12-03T23:10:59.323Z,1.63
2018-12-03T23:13:27.491Z,1.00
2018-12-03T23:15:55.595Z,1.20
2018-12-03T23:18:23.844Z,0.93
2018-12-03T23:20:51.911Z,1.23
2018-12-03T23:23:20.029Z,1.10
2018-12-03T23:25:48.288Z,1.13
2018-12-03T23:28:16.313Z,1.30
2018-12-03T23:30:44.431Z,1.20
2018-12-03T23:33:12.467Z,1.57
2018-12-03T23:35:41.250Z,1.10
2018-12-03T23:38:10.530Z,1.53
2018-12-03T23:40:38.558Z,1.10
2018-12-03T23:43:06.610Z,1.57
2018-12-03T23:45:34.644Z,1.17
2018-12-03T23:48:02.715Z,1.07
2018-12-03T23:50:30.803Z,1.00
2018-12-03T23:52:58.918Z,0.90
2018-12-03T23:55:26.999Z,1.10
2018-12-03T23:57:55.066Z,1.30
